createdAt,value
2019-04-06T00:00:46.060Z,0
2019-04-06T00:01:47.645Z,0
2019-04-06T00:02:48.157Z,0
2019-04-06T00:03:48.947Z,0
2019-04-06T00:04:49.709Z,0
2019-04-06T00:05:50.740Z,0
2019-04-06T00:06:51.770Z,0
2019-04-06T00:07:52.917Z,0
2019-04-06T00:08:54.265Z,0
2019-04-06T00:09:54.508Z,0
2019-04-06T00:10:57.585Z,0
2019-04-06T00:11:58.913Z,0
2019-04-06T00:13:00.032Z,0
2019-04-06T00:14:00.429Z,0
2019-04-06T00:15:01.461Z,0
2019-04-06T00:16:01.789Z,0
2019-04-06T00:17:02.097Z,0
2019-04-06T00:18:03.436Z,0
2019-04-06T00:19:04.045Z,0
2019-04-06T00:20:05.017Z,0
2019-04-06T00:21:04.835Z,0
2019-04-06T00:22:05.890Z,0
2019-04-06T00:23:06.415Z,0
2019-04-06T00:24:06.918Z,0
2019-04-06T00:25:08.300Z,0
2019-04-06T00:26:08.561Z,0
2019-04-06T00:27:10.149Z,0
2019-04-06T00:28:09.655Z,0
2019-04-06T00:29:10.413Z,0
2019-04-06T00:30:11.447Z,0
2019-04-06T00:31:12.533Z,0
2019-04-06T00:32:13.043Z,0
2019-04-06T00:33:13.529Z,0
2019-04-06T00:34:14.003Z,0
2019-04-06T00:35:15.032Z,0
2019-04-06T00:36:16.119Z,0
2019-04-06T00:37:16.700Z,0
2019-04-06T00:38:17.791Z,0
2019-04-06T00:39:17.855Z,0
2019-04-06T00:40:18.622Z,0
2019-04-06T00:41:19.661Z,0
2019-04-06T00:42:20.985Z,0
2019-04-06T00:43:21.081Z,0
2019-04-06T00:44:21.639Z,0
2019-04-06T00:45:21.989Z,0
2019-04-06T00:46:23.355Z,0
2019-04-06T00:47:23.295Z,0
2019-04-06T00:48:23.823Z,0
2019-04-06T00:49:24.301Z,0
2019-04-06T00:50:24.783Z,0
2019-04-06T00:51:25.258Z,0
2019-04-06T00:52:26.180Z,0
2019-04-06T00:53:26.793Z,0
2019-04-06T00:54:28.244Z,0
2019-04-06T00:55:28.545Z,0
2019-04-06T00:56:29.107Z,0
2019-04-06T00:57:30.230Z,0
2019-04-06T00:58:30.782Z,0
2019-04-06T00:59:31.008Z,0
2019-04-06T01:00:31.482Z,0
2019-04-06T01:01:32.242Z,0
2019-04-06T01:02:33.290Z,0
2019-04-06T01:03:34.106Z,0
2019-04-06T01:04:34.896Z,0
2019-04-06T01:05:35.161Z,0
2019-04-06T01:06:35.480Z,0
2019-04-06T01:07:36.032Z,0
2019-04-06T01:08:37.342Z,0
2019-04-06T01:09:37.889Z,0
2019-04-06T01:10:38.192Z,0
2019-04-06T01:11:38.472Z,0
2019-04-06T01:12:39.512Z,0
2019-04-06T01:13:40.547Z,0
2019-04-06T01:14:41.668Z,0
2019-04-06T01:15:42.217Z,0
2019-04-06T01:16:43.170Z,0
2019-04-06T01:17:43.447Z,0
2019-04-06T01:18:44.836Z,0
2019-04-06T01:19:45.614Z,0
2019-04-06T01:20:46.752Z,0
2019-04-06T01:21:47.790Z,0
2019-04-06T01:22:48.099Z,0
2019-04-06T01:23:49.003Z,0
2019-04-06T01:24:48.500Z,0
2019-04-06T01:25:48.838Z,0
2019-04-06T01:26:49.337Z,0
2019-04-06T01:27:50.411Z,0
2019-04-06T01:28:50.549Z,0
2019-04-06T01:29:51.625Z,0
2019-04-06T01:30:52.107Z,0
2019-04-06T01:31:53.371Z,0
2019-04-06T01:32:54.179Z,0
2019-04-06T01:33:54.377Z,0
2019-04-06T01:34:55.445Z,0
2019-04-06T01:35:56.036Z,0
2019-04-06T01:36:56.094Z,0
2019-04-06T01:37:57.299Z,0
2019-04-06T01:38:57.829Z,0
2019-04-06T01:39:58.091Z,0
2019-04-06T01:40:58.375Z,0
2019-04-06T01:41:59.167Z,0
2019-04-06T01:43:00.820Z,0
2019-04-06T01:44:01.870Z,0
2019-04-06T01:45:02.183Z,0
2019-04-06T01:46:02.658Z,0
2019-04-06T01:47:03.698Z,0
2019-04-06T01:48:03.439Z,0
2019-04-06T01:49:04.827Z,0
2019-04-06T01:50:05.583Z,0
2019-04-06T01:51:05.792Z,0
2019-04-06T01:52:07.092Z,0
2019-04-06T01:53:07.315Z,0
2019-04-06T01:54:08.731Z,0
2019-04-06T01:55:09.845Z,0
2019-04-06T01:56:21.501Z,0
2019-04-06T01:57:21.498Z,0
2019-04-06T01:58:22.245Z,0
2019-04-06T01:59:22.814Z,0
2019-04-06T02:00:23.906Z,0
2019-04-06T02:01:24.605Z,0
2019-04-06T02:02:25.879Z,0
2019-04-06T02:03:25.659Z,0
2019-04-06T02:04:26.135Z,0
2019-04-06T02:05:27.035Z,0
2019-04-06T02:06:27.814Z,0
2019-04-06T02:07:28.946Z,0
2019-04-06T02:08:28.552Z,0
2019-04-06T02:09:29.515Z,0
2019-04-06T02:10:30.271Z,0
2019-04-06T02:11:31.686Z,0
2019-04-06T02:12:32.788Z,0
2019-04-06T02:13:33.644Z,0
2019-04-06T02:14:34.123Z,0
2019-04-06T02:15:35.058Z,0
2019-04-06T02:16:35.619Z,0
2019-04-06T02:17:37.305Z,0
2019-04-06T02:18:37.800Z,0
2019-04-06T02:19:38.330Z,0
2019-04-06T02:20:39.756Z,0
2019-04-06T02:21:40.934Z,0
2019-04-06T02:22:41.140Z,0
2019-04-06T02:23:41.528Z,0
2019-04-06T02:24:41.842Z,0
2019-04-06T02:25:42.473Z,0
2019-04-06T02:26:43.598Z,0
2019-04-06T02:27:44.430Z,0
2019-04-06T02:28:45.205Z,0
2019-04-06T02:29:45.789Z,0
2019-04-06T02:30:47.230Z,0
2019-04-06T02:31:48.887Z,0
2019-04-06T02:32:49.513Z,0
2019-04-06T02:33:49.685Z,0
2019-04-06T02:34:51.418Z,0
2019-04-06T02:35:51.945Z,0
2019-04-06T02:36:52.804Z,0
2019-04-06T02:37:54.106Z,0
2019-04-06T02:38:54.124Z,0
2019-04-06T02:39:54.169Z,0
2019-04-06T02:40:55.028Z,0
2019-04-06T02:41:56.664Z,0
2019-04-06T02:42:57.379Z,0
2019-04-06T02:43:57.330Z,0
2019-04-06T02:44:59.030Z,0
2019-04-06T02:45:59.113Z,0
2019-04-06T02:47:00.303Z,0
2019-04-06T02:48:01.734Z,0
2019-04-06T02:49:02.811Z,0
2019-04-06T02:50:04.375Z,0
2019-04-06T02:51:05.153Z,0
2019-04-06T02:52:06.045Z,0
2019-04-06T02:53:05.634Z,0
2019-04-06T02:54:05.475Z,0
2019-04-06T02:55:07.440Z,0
2019-04-06T02:56:07.332Z,0
2019-04-06T02:57:09.244Z,0
2019-04-06T02:58:10.325Z,0
2019-04-06T02:59:10.815Z,0
2019-04-06T03:00:11.331Z,0
2019-04-06T03:01:12.743Z,0
2019-04-06T03:02:13.368Z,0
2019-04-06T03:03:14.985Z,0
2019-04-06T03:04:14.578Z,0
2019-04-06T03:05:16.047Z,0
2019-04-06T03:06:16.659Z,0
2019-04-06T03:07:18.011Z,0
2019-04-06T03:08:19.608Z,0
2019-04-06T03:09:20.195Z,0
2019-04-06T03:10:21.430Z,0
2019-04-06T03:11:22.198Z,0
2019-04-06T03:12:23.125Z,0
2019-04-06T03:13:23.662Z,0
2019-04-06T03:14:23.952Z,0
2019-04-06T03:15:25.122Z,0
2019-04-06T03:16:27.411Z,0
2019-04-06T03:17:27.311Z,0
2019-04-06T03:18:27.617Z,0
2019-04-06T03:19:30.098Z,0
2019-04-06T03:20:31.470Z,0
2019-04-06T03:21:30.426Z,0
2019-04-06T03:22:31.891Z,0
2019-04-06T03:23:31.393Z,0
2019-04-06T03:24:32.354Z,0
2019-04-06T03:25:32.994Z,0
2019-04-06T03:26:33.584Z,0
2019-04-06T03:27:35.322Z,0
2019-04-06T03:28:35.397Z,0
2019-04-06T03:29:35.802Z,0
2019-04-06T03:30:38.258Z,0
2019-04-06T03:31:38.272Z,0
2019-04-06T03:32:39.231Z,0
2019-04-06T03:33:40.295Z,0
2019-04-06T03:34:40.776Z,0
2019-04-06T03:35:54.543Z,0
2019-04-06T03:36:52.488Z,0
2019-04-06T03:37:52.811Z,0
2019-04-06T03:38:53.804Z,0
2019-04-06T03:39:55.296Z,0
2019-04-06T03:40:56.294Z,0
2019-04-06T03:41:55.397Z,0
2019-04-06T03:42:55.779Z,0
2019-04-06T03:43:57.056Z,0
2019-04-06T03:44:57.628Z,0
2019-04-06T03:45:59.585Z,0
2019-04-06T03:46:59.599Z,0
2019-04-06T03:48:00.512Z,0
2019-04-06T03:49:01.220Z,0
2019-04-06T03:50:01.362Z,0
2019-04-06T03:51:02.422Z,0
2019-04-06T03:52:04.783Z,0
2019-04-06T03:53:05.105Z,0
2019-04-06T03:54:05.917Z,0
2019-04-06T03:55:06.340Z,0
2019-04-06T03:56:08.233Z,0
2019-04-06T03:57:19.868Z,0
2019-04-06T03:58:18.528Z,0
2019-04-06T03:59:19.801Z,0
2019-04-06T04:00:20.527Z,0
2019-04-06T04:01:21.987Z,0
2019-04-06T04:02:22.047Z,0
2019-04-06T04:03:23.115Z,0
2019-04-06T04:04:24.799Z,0
2019-04-06T04:05:25.705Z,0
2019-04-06T04:06:27.108Z,0
2019-04-06T04:07:26.176Z,0
2019-04-06T04:08:26.851Z,0
2019-04-06T04:09:26.923Z,0
2019-04-06T04:10:27.394Z,0
2019-04-06T04:11:28.182Z,0
2019-04-06T04:12:28.999Z,0
2019-04-06T04:13:30.078Z,0
2019-04-06T04:14:30.674Z,0
2019-04-06T04:15:31.792Z,0
2019-04-06T04:16:32.677Z,0
2019-04-06T04:17:33.833Z,0
2019-04-06T04:18:35.278Z,0
2019-04-06T04:19:35.486Z,0
2019-04-06T04:20:37.632Z,0
2019-04-06T04:21:37.734Z,0
2019-04-06T04:22:39.268Z,0
2019-04-06T04:23:40.735Z,0
2019-04-06T04:24:39.749Z,0
2019-04-06T04:25:41.130Z,0
2019-04-06T04:26:42.349Z,0
2019-04-06T04:27:42.979Z,0
2019-04-06T04:28:43.093Z,0
2019-04-06T04:29:43.520Z,0
2019-04-06T04:30:43.890Z,0
2019-04-06T04:31:45.196Z,0
2019-04-06T04:32:46.607Z,0
2019-04-06T04:33:47.099Z,0
2019-04-06T04:34:48.321Z,0
2019-04-06T04:35:49.298Z,0
2019-04-06T04:36:50.112Z,0
2019-04-06T04:37:51.084Z,0
2019-04-06T04:38:51.839Z,0
2019-04-06T04:39:52.930Z,0
2019-04-06T04:40:53.816Z,0
2019-04-06T04:41:53.969Z,5.63
2019-04-06T04:42:54.855Z,5.63
2019-04-06T04:43:54.677Z,5.63
2019-04-06T04:44:55.526Z,5.63
2019-04-06T04:45:57.563Z,5.63
2019-04-06T04:46:58.523Z,5.63
2019-04-06T04:47:59.014Z,11.25
2019-04-06T04:48:59.143Z,11.25
2019-04-06T04:50:01.152Z,11.25
2019-04-06T04:51:02.381Z,11.25
2019-04-06T04:52:03.702Z,11.25
2019-04-06T04:53:04.134Z,16.88
2019-04-06T04:54:04.687Z,16.88
2019-04-06T04:55:05.708Z,16.88
2019-04-06T04:56:06.402Z,16.88
2019-04-06T04:57:06.774Z,22.5
2019-04-06T04:58:07.709Z,22.5
2019-04-06T04:59:08.925Z,22.5
2019-04-06T05:00:09.156Z,22.5
2019-04-06T05:01:10.581Z,28.13
2019-04-06T05:02:09.649Z,28.13
2019-04-06T05:03:10.960Z,28.13
2019-04-06T05:04:11.953Z,33.75
2019-04-06T05:05:12.883Z,33.75
2019-04-06T05:06:12.864Z,33.75
2019-04-06T05:07:14.538Z,39.38
2019-04-06T05:08:14.072Z,39.38
2019-04-06T05:09:14.906Z,39.38
2019-04-06T05:10:16.549Z,45
2019-04-06T05:11:16.912Z,45
2019-04-06T05:12:17.572Z,45
2019-04-06T05:13:18.474Z,50.63
2019-04-06T05:14:19.498Z,50.63
2019-04-06T05:15:19.946Z,50.63
2019-04-06T05:16:21.345Z,56.25
2019-04-06T05:17:22.643Z,56.25
2019-04-06T05:18:23.426Z,61.88
2019-04-06T05:19:24.769Z,61.88
2019-04-06T05:20:26.887Z,61.88
2019-04-06T05:21:26.566Z,67.5
2019-04-06T05:22:28.415Z,67.5
2019-04-06T05:23:28.050Z,67.5
2019-04-06T05:24:29.199Z,67.5
2019-04-06T05:25:30.344Z,73.13
2019-04-06T05:26:41.558Z,73.13
2019-04-06T05:27:55.037Z,78.75
2019-04-06T05:28:52.628Z,78.75
2019-04-06T05:29:52.688Z,84.38
2019-04-06T05:30:53.319Z,90
2019-04-06T05:31:53.866Z,90
2019-04-06T05:32:55.180Z,90
2019-04-06T05:33:55.538Z,90
2019-04-06T05:34:59.654Z,95.63
2019-04-06T05:35:56.482Z,95.63
2019-04-06T05:36:57.584Z,101.25
2019-04-06T05:37:58.197Z,101.25
2019-04-06T05:38:59.172Z,106.88
2019-04-06T05:40:00.712Z,106.88
2019-04-06T05:41:01.991Z,106.88
2019-04-06T05:42:02.369Z,112.5
2019-04-06T05:43:02.979Z,118.13
2019-04-06T05:44:04.086Z,118.13
2019-04-06T05:45:05.240Z,123.75
2019-04-06T05:46:05.387Z,129.38
2019-04-06T05:47:06.738Z,129.38
2019-04-06T05:48:07.361Z,135
2019-04-06T05:49:07.591Z,135
2019-04-06T05:50:08.211Z,135
2019-04-06T05:51:08.701Z,135
2019-04-06T05:52:09.801Z,140.63
2019-04-06T05:53:10.672Z,140.63
2019-04-06T05:54:11.362Z,140.63
2019-04-06T05:55:12.248Z,146.25
2019-04-06T05:56:13.519Z,146.25
2019-04-06T05:57:14.570Z,146.25
2019-04-06T05:58:14.966Z,146.25
2019-04-06T05:59:16.141Z,151.88
2019-04-06T06:00:17.511Z,157.5
2019-04-06T06:01:17.997Z,163.13
2019-04-06T06:02:18.428Z,168.75
2019-04-06T06:03:19.449Z,174.38
2019-04-06T06:04:20.624Z,174.38
2019-04-06T06:05:21.881Z,180
2019-04-06T06:06:21.973Z,180
2019-04-06T06:07:22.453Z,185.63
2019-04-06T06:08:22.389Z,185.63
2019-04-06T06:09:23.138Z,191.25
2019-04-06T06:10:23.941Z,196.88
2019-04-06T06:11:25.631Z,202.5
2019-04-06T06:12:25.907Z,202.5
2019-04-06T06:13:27.338Z,208.13
2019-04-06T06:14:26.938Z,208.13
2019-04-06T06:15:27.433Z,202.5
2019-04-06T06:16:28.029Z,202.5
2019-04-06T06:17:28.710Z,208.13
2019-04-06T06:18:29.765Z,213.75
2019-04-06T06:19:30.520Z,213.75
2019-04-06T06:20:31.286Z,219.38
2019-04-06T06:21:32.022Z,219.38
2019-04-06T06:22:32.995Z,219.38
2019-04-06T06:23:34.310Z,286.88
2019-04-06T06:24:37.172Z,410.63
2019-04-06T06:25:38.538Z,495
2019-04-06T06:26:39.081Z,568.13
2019-04-06T06:27:39.755Z,596.25
2019-04-06T06:28:40.582Z,573.75
2019-04-06T06:29:41.627Z,568.13
2019-04-06T06:30:42.535Z,562.5
2019-04-06T06:31:42.644Z,556.88
2019-04-06T06:32:44.229Z,545.63
2019-04-06T06:33:44.984Z,545.63
2019-04-06T06:34:45.190Z,573.75
2019-04-06T06:35:46.072Z,601.88
2019-04-06T06:36:45.997Z,646.88
2019-04-06T06:37:46.656Z,658.13
2019-04-06T06:38:47.569Z,630
2019-04-06T06:39:48.711Z,635.63
2019-04-06T06:40:49.606Z,590.63
2019-04-06T06:41:51.299Z,500.63
2019-04-06T06:42:51.898Z,489.38
2019-04-06T06:43:52.140Z,450
2019-04-06T06:44:52.670Z,495
2019-04-06T06:45:53.992Z,618.75
2019-04-06T06:46:54.386Z,601.88
2019-04-06T06:47:55.080Z,630
2019-04-06T06:48:55.702Z,663.75
2019-04-06T06:49:55.678Z,675
2019-04-06T06:50:56.647Z,601.88
2019-04-06T06:51:56.701Z,663.75
2019-04-06T06:52:56.696Z,703.13
2019-04-06T06:53:57.238Z,697.5
2019-04-06T06:54:58.374Z,658.13
2019-04-06T06:56:00.298Z,663.75
2019-04-06T06:56:59.918Z,720
2019-04-06T06:58:00.921Z,860.63
2019-04-06T06:59:02.081Z,945
2019-04-06T07:00:03.305Z,883.13
2019-04-06T07:01:05.986Z,765
2019-04-06T07:02:06.274Z,821.25
2019-04-06T07:03:07.050Z,888.75
2019-04-06T07:04:08.613Z,832.5
2019-04-06T07:05:09.151Z,765
2019-04-06T07:06:10.921Z,669.38
2019-04-06T07:07:11.483Z,866.25
2019-04-06T07:08:12.294Z,911.25
2019-04-06T07:09:11.901Z,793.13
2019-04-06T07:10:13.137Z,877.5
2019-04-06T07:11:14.018Z,1051.88
2019-04-06T07:12:14.027Z,1012.5
2019-04-06T07:13:14.052Z,1029.38
2019-04-06T07:14:16.412Z,1068.75
2019-04-06T07:15:17.110Z,1074.38
2019-04-06T07:16:17.371Z,1102.5
2019-04-06T07:17:19.027Z,973.13
2019-04-06T07:18:18.526Z,950.63
2019-04-06T07:19:19.231Z,973.13
2019-04-06T07:20:20.127Z,950.63
2019-04-06T07:21:20.870Z,714.38
2019-04-06T07:22:22.537Z,804.38
2019-04-06T07:23:23.039Z,770.63
2019-04-06T07:24:23.487Z,585
2019-04-06T07:25:23.989Z,781.88
2019-04-06T07:26:24.886Z,770.63
2019-04-06T07:27:26.023Z,900
2019-04-06T07:28:40.887Z,742.5
2019-04-06T07:29:37.572Z,781.88
2019-04-06T07:30:38.489Z,950.63
2019-04-06T07:31:39.824Z,804.38
2019-04-06T07:32:39.791Z,714.38
2019-04-06T07:33:40.188Z,720
2019-04-06T07:34:41.005Z,759.38
2019-04-06T07:35:42.674Z,995.63
2019-04-06T07:36:42.732Z,1085.63
2019-04-06T07:37:42.880Z,973.13
2019-04-06T07:38:43.256Z,815.63
2019-04-06T07:39:44.004Z,725.63
2019-04-06T07:40:44.894Z,708.75
2019-04-06T07:41:45.037Z,703.13
2019-04-06T07:42:46.935Z,720
2019-04-06T07:43:46.491Z,742.5
2019-04-06T07:44:46.710Z,489.38
2019-04-06T07:45:48.015Z,478.13
2019-04-06T07:46:47.942Z,489.38
2019-04-06T07:47:48.743Z,556.88
2019-04-06T07:48:50.816Z,562.5
2019-04-06T07:49:50.689Z,568.13
2019-04-06T07:50:52.186Z,618.75
2019-04-06T07:51:53.409Z,787.5
2019-04-06T07:52:53.340Z,1108.13
2019-04-06T07:53:53.985Z,1350
2019-04-06T07:54:55.034Z,1636.88
2019-04-06T07:55:56.010Z,1580.63
2019-04-06T07:56:56.829Z,849.38
2019-04-06T07:57:57.770Z,922.5
2019-04-06T07:58:58.109Z,956.25
2019-04-06T07:59:58.857Z,1192.5
2019-04-06T08:00:59.772Z,1220.63
2019-04-06T08:02:00.139Z,1068.75
2019-04-06T08:03:00.913Z,646.88
2019-04-06T08:04:01.942Z,540
2019-04-06T08:05:02.573Z,534.38
2019-04-06T08:06:03.538Z,556.88
2019-04-06T08:07:04.083Z,849.38
2019-04-06T08:08:04.884Z,933.75
2019-04-06T08:09:06.129Z,911.25
2019-04-06T08:10:06.845Z,1068.75
2019-04-06T08:11:08.596Z,669.38
2019-04-06T08:12:08.085Z,776.25
2019-04-06T08:13:08.724Z,1192.5
2019-04-06T08:14:09.430Z,1552.5
2019-04-06T08:15:10.534Z,1040.63
2019-04-06T08:16:11.322Z,663.75
2019-04-06T08:17:12.372Z,1383.75
2019-04-06T08:18:12.902Z,781.88
2019-04-06T08:19:14.146Z,523.13
2019-04-06T08:20:15.147Z,483.75
2019-04-06T08:21:15.941Z,635.63
2019-04-06T08:22:16.256Z,545.63
2019-04-06T08:23:17.166Z,860.63
2019-04-06T08:24:17.940Z,686.25
2019-04-06T08:25:18.573Z,995.63
2019-04-06T08:26:19.821Z,1265.63
2019-04-06T08:27:20.596Z,1288.13
2019-04-06T08:28:21.399Z,1220.63
2019-04-06T08:29:22.825Z,1153.13
2019-04-06T08:30:23.120Z,894.38
2019-04-06T08:31:23.779Z,905.63
2019-04-06T08:32:24.521Z,984.38
2019-04-06T08:33:25.810Z,871.88
2019-04-06T08:34:26.612Z,911.25
2019-04-06T08:35:29.328Z,1164.38
2019-04-06T08:36:30.912Z,1563.75
2019-04-06T08:37:31.028Z,1693.13
2019-04-06T08:38:33.028Z,1710
2019-04-06T08:39:34.041Z,1288.13
2019-04-06T08:40:34.665Z,1068.75
2019-04-06T08:41:34.647Z,1344.38
2019-04-06T08:42:35.988Z,1108.13
2019-04-06T08:43:36.521Z,1220.63
2019-04-06T08:44:37.478Z,1597.5
2019-04-06T08:45:38.247Z,1395
2019-04-06T08:46:39.020Z,1518.75
2019-04-06T08:47:39.842Z,1395
2019-04-06T08:48:40.576Z,1406.25
2019-04-06T08:49:41.024Z,877.5
2019-04-06T08:50:41.778Z,1147.5
2019-04-06T08:51:41.335Z,1355.63
2019-04-06T08:52:41.427Z,1456.88
2019-04-06T08:53:43.023Z,1456.88
2019-04-06T08:54:44.485Z,995.63
2019-04-06T08:55:45.824Z,1057.5
2019-04-06T08:56:46.043Z,1074.38
2019-04-06T08:57:46.678Z,888.75
2019-04-06T08:58:47.858Z,1552.5
2019-04-06T08:59:48.849Z,1158.75
2019-04-06T09:00:50.495Z,950.63
2019-04-06T09:01:49.372Z,1231.88
2019-04-06T09:02:50.602Z,1001.25
2019-04-06T09:03:51.274Z,978.75
2019-04-06T09:04:51.795Z,1293.75
2019-04-06T09:05:51.975Z,1783.13
2019-04-06T09:06:52.205Z,1828.13
2019-04-06T09:07:53.105Z,1726.88
2019-04-06T09:08:53.811Z,1321.88
2019-04-06T09:09:55.356Z,894.38
2019-04-06T09:10:57.235Z,950.63
2019-04-06T09:11:57.088Z,1620
2019-04-06T09:12:57.660Z,1653.75
2019-04-06T09:13:58.649Z,1743.75
2019-04-06T09:15:00.404Z,1788.75
2019-04-06T09:16:04.760Z,1417.5
2019-04-06T09:17:02.867Z,1890
2019-04-06T09:18:02.859Z,1350
2019-04-06T09:19:03.839Z,1074.38
2019-04-06T09:20:05.257Z,1164.38
2019-04-06T09:21:05.369Z,1018.13
2019-04-06T09:22:06.823Z,680.63
2019-04-06T09:23:07.364Z,905.63
2019-04-06T09:24:07.087Z,1580.63
2019-04-06T09:25:08.094Z,1828.13
2019-04-06T09:26:09.016Z,2238.75
2019-04-06T09:27:09.908Z,1681.88
2019-04-06T09:28:10.710Z,1006.88
2019-04-06T09:29:33.410Z,871.88
2019-04-06T09:30:32.327Z,877.5
2019-04-06T09:31:32.560Z,2205
2019-04-06T09:32:33.337Z,826.88
2019-04-06T09:33:34.258Z,2120.63
2019-04-06T09:34:35.691Z,2188.13
2019-04-06T09:35:35.786Z,2103.75
2019-04-06T09:36:36.599Z,2008.13
2019-04-06T09:37:37.947Z,1839.38
2019-04-06T09:38:38.073Z,1794.38
2019-04-06T09:39:38.869Z,1726.88
2019-04-06T09:40:39.156Z,1620
2019-04-06T09:41:39.381Z,1614.38
2019-04-06T09:42:40.124Z,1777.5
2019-04-06T09:43:41.220Z,1681.88
2019-04-06T09:44:42.116Z,1530
2019-04-06T09:45:44.451Z,1726.88
2019-04-06T09:46:45.561Z,2019.38
2019-04-06T09:47:45.862Z,2120.63
2019-04-06T09:48:47.068Z,2160
2019-04-06T09:49:49.115Z,2182.5
2019-04-06T09:50:48.445Z,2356.88
2019-04-06T09:51:49.403Z,2463.75
2019-04-06T09:52:50.689Z,2430
2019-04-06T09:53:50.750Z,2486.25
2019-04-06T09:54:52.043Z,2441.25
2019-04-06T09:55:52.073Z,2413.13
2019-04-06T09:56:53.027Z,2373.75
2019-04-06T09:57:53.869Z,2176.88
2019-04-06T09:58:55.157Z,2205
2019-04-06T09:59:56.805Z,2458.13
2019-04-06T10:00:56.257Z,2649.38
2019-04-06T10:01:57.347Z,2621.25
2019-04-06T10:02:58.150Z,2570.63
2019-04-06T10:03:59.895Z,2570.63
2019-04-06T10:04:59.474Z,2503.13
2019-04-06T10:06:00.375Z,2559.38
2019-04-06T10:07:01.177Z,2610
2019-04-06T10:08:02.281Z,2581.88
2019-04-06T10:09:03.541Z,2559.38
2019-04-06T10:10:04.222Z,2587.5
2019-04-06T10:11:05.129Z,2615.63
2019-04-06T10:12:07.942Z,2576.25
2019-04-06T10:13:07.826Z,2598.75
2019-04-06T10:14:09.352Z,2621.25
2019-04-06T10:15:11.174Z,2604.38
2019-04-06T10:16:10.748Z,2604.38
2019-04-06T10:17:12.061Z,2553.75
2019-04-06T10:18:13.313Z,2525.63
2019-04-06T10:19:14.460Z,2531.25
2019-04-06T10:20:14.502Z,2553.75
2019-04-06T10:21:15.652Z,2536.88
2019-04-06T10:22:16.422Z,2491.88
2019-04-06T10:23:17.002Z,2424.38
2019-04-06T10:24:16.966Z,2475
2019-04-06T10:25:17.812Z,2323.13
2019-04-06T10:26:18.177Z,2233.13
2019-04-06T10:27:18.826Z,2126.25
2019-04-06T10:28:19.358Z,2019.38
2019-04-06T10:29:19.839Z,2008.13
2019-04-06T10:30:21.514Z,1721.25
2019-04-06T10:31:22.458Z,2424.38
2019-04-06T10:32:22.741Z,2368.13
2019-04-06T10:33:23.716Z,2469.38
2019-04-06T10:34:25.287Z,2475
2019-04-06T10:35:25.806Z,2390.63
2019-04-06T10:36:27.290Z,2497.5
2019-04-06T10:37:28.152Z,2345.63
2019-04-06T10:38:28.598Z,2323.13
2019-04-06T10:39:29.920Z,2227.5
2019-04-06T10:40:30.718Z,2430
2019-04-06T10:41:31.249Z,2340
2019-04-06T10:42:33.591Z,2266.88
2019-04-06T10:43:34.532Z,2311.88
2019-04-06T10:44:35.040Z,2328.75
2019-04-06T10:45:36.458Z,2379.38
2019-04-06T10:46:36.751Z,2368.13
2019-04-06T10:47:38.587Z,2390.63
2019-04-06T10:48:38.698Z,2458.13
2019-04-06T10:49:39.691Z,2452.5
2019-04-06T10:50:39.900Z,2475
2019-04-06T10:51:43.265Z,2497.5
2019-04-06T10:52:44.707Z,2418.75
2019-04-06T10:53:46.103Z,2385
2019-04-06T10:54:45.134Z,2491.88
2019-04-06T10:55:45.596Z,2491.88
2019-04-06T10:56:47.274Z,2491.88
2019-04-06T10:57:48.244Z,2508.75
2019-04-06T10:58:49.334Z,2452.5
2019-04-06T11:00:05.594Z,2469.38
2019-04-06T11:00:11.206Z,2452.5
2019-04-06T11:01:11.863Z,2480.63
2019-04-06T11:02:12.602Z,2525.63
2019-04-06T11:03:11.889Z,2508.75
2019-04-06T11:04:14.429Z,2531.25
2019-04-06T11:05:15.069Z,2480.63
2019-04-06T11:06:14.784Z,2435.63
2019-04-06T11:07:16.411Z,2250
2019-04-06T11:08:16.889Z,2227.5
2019-04-06T11:09:16.698Z,2171.25
2019-04-06T11:10:18.414Z,2098.13
2019-04-06T11:11:22.794Z,2143.13
2019-04-06T11:12:23.454Z,2210.63
2019-04-06T11:13:24.034Z,2323.13
2019-04-06T11:14:24.361Z,2126.25
2019-04-06T11:15:25.227Z,2064.38
2019-04-06T11:16:26.379Z,2019.38
2019-04-06T11:17:27.448Z,1963.13
2019-04-06T11:18:29.124Z,1940.63
2019-04-06T11:19:29.640Z,1710
2019-04-06T11:20:30.508Z,1951.88
2019-04-06T11:21:31.879Z,1327.5
2019-04-06T11:22:32.759Z,2137.5
2019-04-06T11:23:33.607Z,2154.38
2019-04-06T11:24:34.368Z,2255.63
2019-04-06T11:25:34.710Z,2317.5
2019-04-06T11:26:35.148Z,2311.88
2019-04-06T11:27:35.568Z,2306.25
2019-04-06T11:28:36.862Z,2340
2019-04-06T11:29:36.768Z,2193.75
2019-04-06T11:30:38.084Z,2115
2019-04-06T11:31:38.670Z,2233.13
2019-04-06T11:32:39.523Z,2193.75
2019-04-06T11:33:40.416Z,2131.88
2019-04-06T11:34:42.229Z,2188.13
2019-04-06T11:35:42.540Z,2238.75
2019-04-06T11:36:43.052Z,2199.38
2019-04-06T11:37:42.875Z,2210.63
2019-04-06T11:38:44.051Z,2137.5
2019-04-06T11:39:45.192Z,2137.5
2019-04-06T11:40:46.739Z,2160
2019-04-06T11:41:47.435Z,2176.88
2019-04-06T11:42:48.123Z,2216.25
2019-04-06T11:43:48.422Z,2244.38
2019-04-06T11:44:49.563Z,2188.13
2019-04-06T11:45:50.765Z,2120.63
2019-04-06T11:46:51.420Z,2176.88
2019-04-06T11:47:51.985Z,742.5
2019-04-06T11:48:52.595Z,573.75
2019-04-06T11:49:53.938Z,748.13
2019-04-06T11:50:55.027Z,1918.13
2019-04-06T11:51:55.141Z,1951.88
2019-04-06T11:52:56.351Z,1968.75
2019-04-06T11:53:56.904Z,1980
2019-04-06T11:54:58.797Z,1963.13
2019-04-06T11:55:59.222Z,1991.25
2019-04-06T11:56:59.948Z,1985.63
2019-04-06T11:58:00.514Z,1985.63
2019-04-06T11:59:02.876Z,1906.88
2019-04-06T12:00:02.436Z,1901.25
2019-04-06T12:01:04.391Z,1822.5
2019-04-06T12:02:06.614Z,1895.63
2019-04-06T12:03:06.138Z,1895.63
2019-04-06T12:04:07.949Z,1974.38
2019-04-06T12:05:08.011Z,2019.38
2019-04-06T12:06:08.671Z,1985.63
2019-04-06T12:07:10.435Z,1918.13
2019-04-06T12:08:12.085Z,1940.63
2019-04-06T12:09:12.862Z,2008.13
2019-04-06T12:10:13.693Z,2058.75
2019-04-06T12:11:14.608Z,2182.5
2019-04-06T12:12:14.957Z,1985.63
2019-04-06T12:13:15.669Z,1980
2019-04-06T12:14:16.452Z,1974.38
2019-04-06T12:15:16.707Z,1884.38
2019-04-06T12:16:17.335Z,1923.75
2019-04-06T12:17:18.618Z,1811.25
2019-04-06T12:18:21.312Z,1963.13
2019-04-06T12:19:21.917Z,2025
2019-04-06T12:20:22.442Z,1951.88
2019-04-06T12:21:23.536Z,1946.25
2019-04-06T12:22:23.043Z,2025
2019-04-06T12:23:23.640Z,1980
2019-04-06T12:24:25.814Z,1884.38
2019-04-06T12:25:27.884Z,1901.25
2019-04-06T12:26:27.893Z,1946.25
2019-04-06T12:27:27.516Z,1991.25
2019-04-06T12:28:27.615Z,2008.13
2019-04-06T12:29:28.854Z,1991.25
2019-04-06T12:30:41.852Z,1957.5
2019-04-06T12:31:41.658Z,1929.38
2019-04-06T12:32:42.090Z,1918.13
2019-04-06T12:33:42.618Z,1929.38
2019-04-06T12:34:43.623Z,1878.75
2019-04-06T12:35:44.535Z,1833.75
2019-04-06T12:36:45.269Z,1828.13
2019-04-06T12:37:45.799Z,1839.38
2019-04-06T12:38:46.869Z,1845
2019-04-06T12:39:57.358Z,1873.13
2019-04-06T12:40:58.340Z,1794.38
2019-04-06T12:41:59.007Z,1755
2019-04-06T12:43:00.038Z,1704.38
2019-04-06T12:44:00.186Z,1721.25
2019-04-06T12:45:02.259Z,1743.75
2019-04-06T12:46:03.128Z,1800
2019-04-06T12:47:04.596Z,1850.63
2019-04-06T12:48:06.107Z,1833.75
2019-04-06T12:49:04.574Z,1800
2019-04-06T12:50:08.081Z,1738.13
2019-04-06T12:51:07.128Z,1704.38
2019-04-06T12:52:07.073Z,1710
2019-04-06T12:53:08.804Z,1732.5
2019-04-06T12:54:10.109Z,1715.63
2019-04-06T12:55:10.523Z,1698.75
2019-04-06T12:56:11.995Z,1665
2019-04-06T12:57:11.749Z,1642.5
2019-04-06T12:58:12.911Z,1648.13
2019-04-06T12:59:12.954Z,1614.38
2019-04-06T13:00:13.476Z,1597.5
2019-04-06T13:00:57.006Z,1558.13
2019-04-06T13:01:58.103Z,1580.63
2019-04-06T13:02:58.577Z,1603.13
2019-04-06T13:03:58.511Z,1642.5
2019-04-06T13:04:58.695Z,1676.25
2019-04-06T13:06:00.887Z,1653.75
2019-04-06T13:07:02.076Z,1614.38
2019-04-06T13:08:03.474Z,1614.38
2019-04-06T13:09:03.866Z,1586.25
2019-04-06T13:10:05.471Z,1569.38
2019-04-06T13:11:04.884Z,1552.5
2019-04-06T13:12:06.882Z,1535.63
2019-04-06T13:13:06.083Z,1496.25
2019-04-06T13:14:06.310Z,1501.88
2019-04-06T13:15:08.132Z,1490.63
2019-04-06T13:16:08.892Z,1507.5
2019-04-06T13:17:08.744Z,1490.63
2019-04-06T13:18:09.740Z,1507.5
2019-04-06T13:19:11.858Z,1473.75
2019-04-06T13:20:11.836Z,1423.13
2019-04-06T13:21:13.293Z,1400.63
2019-04-06T13:22:14.723Z,1389.38
2019-04-06T13:23:14.995Z,1406.25
2019-04-06T13:24:15.853Z,1428.75